sensor_id;sensor_type;location;lat;lon;timestamp;P1;durP1;ratioP1;P2;durP2;ratioP2
24407;SDS011;12542;50.924;4.516;2023-04-27T00:02:03;15.32;;;7.43;;
24407;SDS011;12542;50.924;4.516;2023-04-27T00:04:28;15.38;;;6.88;;
24407;SDS011;12542;50.924;4.516;2023-04-27T00:06:54;15.50;;;7.32;;
24407;SDS011;12542;50.924;4.516;2023-04-27T00:09:20;14.18;;;7.53;;
24407;SDS011;12542;50.924;4.516;2023-04-27T00:11:46;13.40;;;7.00;;
24407;SDS011;12542;50.924;4.516;2023-04-27T00:14:11;11.07;;;6.80;;
24407;SDS011;12542;50.924;4.516;2023-04-27T00:16:37;10.48;;;6.75;;
24407;SDS011;12542;50.924;4.516;2023-04-27T00:19:05;12.65;;;7.32;;
24407;SDS011;12542;50.924;4.516;2023-04-27T00:21:33;17.55;;;7.25;;
24407;SDS011;12542;50.924;4.516;2023-04-27T00:23:59;12.80;;;6.03;;
24407;SDS011;12542;50.924;4.516;2023-04-27T00:26:25;13.20;;;7.43;;
24407;SDS011;12542;50.924;4.516;2023-04-27T00:28:51;17.23;;;6.68;;
24407;SDS011;12542;50.924;4.516;2023-04-27T00:31:17;9.70;;;6.32;;
24407;SDS011;12542;50.924;4.516;2023-04-27T00:33:43;9.95;;;6.53;;
24407;SDS011;12542;50.924;4.516;2023-04-27T00:36:09;11.23;;;6.65;;
24407;SDS011;12542;50.924;4.516;2023-04-27T00:38:34;13.50;;;6.65;;
24407;SDS011;12542;50.924;4.516;2023-04-27T00:41:04;13.23;;;6.82;;
24407;SDS011;12542;50.924;4.516;2023-04-27T00:43:31;14.63;;;6.63;;
24407;SDS011;12542;50.924;4.516;2023-04-27T00:45:58;11.15;;;6.45;;
24407;SDS011;12542;50.924;4.516;2023-04-27T00:48:24;11.93;;;5.80;;
24407;SDS011;12542;50.924;4.516;2023-04-27T00:50:50;11.57;;;6.57;;
24407;SDS011;12542;50.924;4.516;2023-04-27T00:53:17;10.68;;;6.22;;
24407;SDS011;12542;50.924;4.516;2023-04-27T00:55:43;12.85;;;6.68;;
24407;SDS011;12542;50.924;4.516;2023-04-27T00:58:09;10.32;;;6.00;;
24407;SDS011;12542;50.924;4.516;2023-04-27T01:00:35;11.23;;;6.30;;
24407;SDS011;12542;50.924;4.516;2023-04-27T01:03:02;14.32;;;5.97;;
24407;SDS011;12542;50.924;4.516;2023-04-27T01:05:37;14.32;;;6.85;;
24407;SDS011;12542;50.924;4.516;2023-04-27T01:08:05;11.73;;;6.70;;
24407;SDS011;12542;50.924;4.516;2023-04-27T01:10:31;12.82;;;6.30;;
24407;SDS011;12542;50.924;4.516;2023-04-27T01:12:57;11.05;;;6.28;;
24407;SDS011;12542;50.924;4.516;2023-04-27T01:15:23;14.73;;;8.18;;
24407;SDS011;12542;50.924;4.516;2023-04-27T01:17:48;12.55;;;6.40;;
24407;SDS011;12542;50.924;4.516;2023-04-27T01:20:21;15.05;;;7.03;;
24407;SDS011;12542;50.924;4.516;2023-04-27T01:22:47;12.45;;;7.45;;
24407;SDS011;12542;50.924;4.516;2023-04-27T01:25:13;14.65;;;7.00;;
24407;SDS011;12542;50.924;4.516;2023-04-27T01:27:39;10.80;;;6.47;;
24407;SDS011;12542;50.924;4.516;2023-04-27T01:30:04;15.43;;;6.72;;
24407;SDS011;12542;50.924;4.516;2023-04-27T01:32:32;13.40;;;7.68;;
24407;SDS011;12542;50.924;4.516;2023-04-27T01:34:57;14.82;;;7.57;;
24407;SDS011;12542;50.924;4.516;2023-04-27T01:37:23;15.88;;;7.80;;
24407;SDS011;12542;50.924;4.516;2023-04-27T01:39:50;14.93;;;7.47;;
24407;SDS011;12542;50.924;4.516;2023-04-27T01:42:15;14.18;;;7.82;;
24407;SDS011;12542;50.924;4.516;2023-04-27T01:44:41;15.38;;;7.47;;
24407;SDS011;12542;50.924;4.516;2023-04-27T01:47:07;14.68;;;7.72;;
24407;SDS011;12542;50.924;4.516;2023-04-27T01:49:33;14.10;;;7.95;;
24407;SDS011;12542;50.924;4.516;2023-04-27T01:51:58;14.10;;;7.60;;
24407;SDS011;12542;50.924;4.516;2023-04-27T01:54:24;14.70;;;7.15;;
24407;SDS011;12542;50.924;4.516;2023-04-27T01:56:50;14.10;;;7.80;;
24407;SDS011;12542;50.924;4.516;2023-04-27T01:59:16;15.88;;;8.43;;
24407;SDS011;12542;50.924;4.516;2023-04-27T02:01:42;17.33;;;9.10;;
24407;SDS011;12542;50.924;4.516;2023-04-27T02:04:07;15.95;;;9.15;;
24407;SDS011;12542;50.924;4.516;2023-04-27T02:06:33;26.33;;;13.38;;
24407;SDS011;12542;50.924;4.516;2023-04-27T02:09:01;23.00;;;10.38;;
24407;SDS011;12542;50.924;4.516;2023-04-27T02:11:27;20.52;;;11.02;;
24407;SDS011;12542;50.924;4.516;2023-04-27T02:13:53;21.52;;;10.90;;
24407;SDS011;12542;50.924;4.516;2023-04-27T02:16:19;23.88;;;12.57;;
24407;SDS011;12542;50.924;4.516;2023-04-27T02:18:44;18.70;;;10.60;;
24407;SDS011;12542;50.924;4.516;2023-04-27T02:21:10;22.95;;;11.13;;
24407;SDS011;12542;50.924;4.516;2023-04-27T02:23:36;14.77;;;8.98;;
24407;SDS011;12542;50.924;4.516;2023-04-27T02:26:02;17.08;;;8.65;;
24407;SDS011;12542;50.924;4.516;2023-04-27T02:28:28;17.70;;;10.35;;
24407;SDS011;12542;50.924;4.516;2023-04-27T02:30:54;25.13;;;12.38;;
24407;SDS011;12542;50.924;4.516;2023-04-27T02:33:20;20.85;;;11.77;;
24407;SDS011;12542;50.924;4.516;2023-04-27T02:35:45;19.10;;;11.73;;
24407;SDS011;12542;50.924;4.516;2023-04-27T02:38:11;21.00;;;11.75;;
24407;SDS011;12542;50.924;4.516;2023-04-27T02:40:37;21.25;;;11.32;;
24407;SDS011;12542;50.924;4.516;2023-04-27T02:43:03;21.55;;;11.02;;
24407;SDS011;12542;50.924;4.516;2023-04-27T02:45:29;20.92;;;10.23;;
24407;SDS011;12542;50.924;4.516;2023-04-27T02:47:54;22.15;;;11.38;;
24407;SDS011;12542;50.924;4.516;2023-04-27T02:50:20;21.80;;;11.63;;
24407;SDS011;12542;50.924;4.516;2023-04-27T02:52:46;22.40;;;10.30;;
24407;SDS011;12542;50.924;4.516;2023-04-27T02:55:12;22.65;;;10.13;;
24407;SDS011;12542;50.924;4.516;2023-04-27T02:57:38;20.30;;;10.20;;
24407;SDS011;12542;50.924;4.516;2023-04-27T03:00:05;15.48;;;9.02;;
24407;SDS011;12542;50.924;4.516;2023-04-27T03:02:33;16.52;;;7.85;;
24407;SDS011;12542;50.924;4.516;2023-04-27T03:04:58;15.48;;;7.57;;
24407;SDS011;12542;50.924;4.516;2023-04-27T03:07:24;18.63;;;9.23;;
24407;SDS011;12542;50.924;4.516;2023-04-27T03:09:50;19.70;;;9.60;;
24407;SDS011;12542;50.924;4.516;2023-04-27T03:12:16;23.65;;;10.48;;
24407;SDS011;12542;50.924;4.516;2023-04-27T03:14:41;17.20;;;8.90;;
24407;SDS011;12542;50.924;4.516;2023-04-27T03:17:07;18.00;;;9.38;;
24407;SDS011;12542;50.924;4.516;2023-04-27T03:19:33;23.65;;;9.65;;
24407;SDS011;12542;50.924;4.516;2023-04-27T03:21:59;22.23;;;9.40;;
24407;SDS011;12542;50.924;4.516;2023-04-27T03:24:25;24.30;;;10.50;;
24407;SDS011;12542;50.924;4.516;2023-04-27T03:26:51;20.55;;;9.43;;
24407;SDS011;12542;50.924;4.516;2023-04-27T03:29:17;21.52;;;9.15;;
24407;SDS011;12542;50.924;4.516;2023-04-27T03:31:43;17.42;;;9.43;;
24407;SDS011;12542;50.924;4.516;2023-04-27T03:34:10;18.23;;;8.80;;
24407;SDS011;12542;50.924;4.516;2023-04-27T03:36:35;13.90;;;8.38;;
24407;SDS011;12542;50.924;4.516;2023-04-27T03:39:01;17.70;;;9.40;;
24407;SDS011;12542;50.924;4.516;2023-04-27T03:41:27;23.42;;;9.65;;
24407;SDS011;12542;50.924;4.516;2023-04-27T03:43:53;18.17;;;9.05;;
24407;SDS011;12542;50.924;4.516;2023-04-27T03:46:19;21.30;;;8.82;;
24407;SDS011;12542;50.924;4.516;2023-04-27T03:48:44;18.88;;;8.98;;
24407;SDS011;12542;50.924;4.516;2023-04-27T03:51:11;15.88;;;8.90;;
24407;SDS011;12542;50.924;4.516;2023-04-27T03:53:37;15.48;;;8.57;;
24407;SDS011;12542;50.924;4.516;2023-04-27T03:56:03;17.70;;;9.48;;
24407;SDS011;12542;50.924;4.516;2023-04-27T03:58:29;21.90;;;9.23;;
24407;SDS011;12542;50.924;4.516;2023-04-27T04:00:55;20.17;;;8.85;;
24407;SDS011;12542;50.924;4.516;2023-04-27T04:03:21;19.02;;;8.90;;
24407;SDS011;12542;50.924;4.516;2023-04-27T04:05:49;15.98;;;9.05;;
24407;SDS011;12542;50.924;4.516;2023-04-27T04:08:15;15.05;;;8.30;;
24407;SDS011;12542;50.924;4.516;2023-04-27T04:10:40;17.40;;;9.60;;
24407;SDS011;12542;50.924;4.516;2023-04-27T04:13:06;22.13;;;10.52;;
24407;SDS011;12542;50.924;4.516;2023-04-27T04:15:32;25.77;;;10.10;;
24407;SDS011;12542;50.924;4.516;2023-04-27T04:17:58;20.27;;;10.07;;
24407;SDS011;12542;50.924;4.516;2023-04-27T04:20:24;20.98;;;9.50;;
24407;SDS011;12542;50.924;4.516;2023-04-27T04:22:50;25.13;;;10.15;;
24407;SDS011;12542;50.924;4.516;2023-04-27T04:25:16;20.00;;;9.18;;
24407;SDS011;12542;50.924;4.516;2023-04-27T04:27:42;18.92;;;9.38;;
24407;SDS011;12542;50.924;4.516;2023-04-27T04:30:07;16.95;;;9.73;;
24407;SDS011;12542;50.924;4.516;2023-04-27T04:32:33;19.70;;;10.30;;
24407;SDS011;12542;50.924;4.516;2023-04-27T04:35:02;21.00;;;10.40;;
24407;SDS011;12542;50.924;4.516;2023-04-27T04:37:32;18.10;;;10.45;;
24407;SDS011;12542;50.924;4.516;2023-04-27T04:39:59;17.20;;;9.32;;
24407;SDS011;12542;50.924;4.516;2023-04-27T04:42:32;22.00;;;10.25;;
24407;SDS011;12542;50.924;4.516;2023-04-27T04:44:58;20.55;;;10.50;;
24407;SDS011;12542;50.924;4.516;2023-04-27T04:47:24;20.33;;;10.52;;
24407;SDS011;12542;50.924;4.516;2023-04-27T04:49:51;17.67;;;10.15;;
24407;SDS011;12542;50.924;4.516;2023-04-27T04:52:16;25.60;;;12.30;;
24407;SDS011;12542;50.924;4.516;2023-04-27T04:54:42;19.20;;;9.63;;
24407;SDS011;12542;50.924;4.516;2023-04-27T04:57:08;16.88;;;10.05;;
24407;SDS011;12542;50.924;4.516;2023-04-27T04:59:34;24.05;;;10.82;;
24407;SDS011;12542;50.924;4.516;2023-04-27T05:02:00;20.85;;;11.82;;
24407;SDS011;12542;50.924;4.516;2023-04-27T05:04:25;19.65;;;10.07;;
24407;SDS011;12542;50.924;4.516;2023-04-27T05:06:51;19.23;;;10.85;;
24407;SDS011;12542;50.924;4.516;2023-04-27T05:09:17;20.80;;;10.40;;
24407;SDS011;12542;50.924;4.516;2023-04-27T05:11:42;15.55;;;9.45;;
24407;SDS011;12542;50.924;4.516;2023-04-27T05:14:08;15.48;;;8.90;;
24407;SDS011;12542;50.924;4.516;2023-04-27T05:16:34;12.38;;;7.65;;
24407;SDS011;12542;50.924;4.516;2023-04-27T05:19:00;14.63;;;7.47;;
24407;SDS011;12542;50.924;4.516;2023-04-27T05:21:25;13.45;;;7.93;;
24407;SDS011;12542;50.924;4.516;2023-04-27T05:23:51;14.13;;;8.00;;
24407;SDS011;12542;50.924;4.516;2023-04-27T05:26:17;13.10;;;7.75;;
24407;SDS011;12542;50.924;4.516;2023-04-27T05:28:43;14.50;;;8.02;;
24407;SDS011;12542;50.924;4.516;2023-04-27T05:31:09;13.00;;;7.68;;
24407;SDS011;12542;50.924;4.516;2023-04-27T05:33:35;13.45;;;7.65;;
24407;SDS011;12542;50.924;4.516;2023-04-27T05:36:00;13.82;;;7.72;;
24407;SDS011;12542;50.924;4.516;2023-04-27T05:38:29;13.30;;;7.25;;
24407;SDS011;12542;50.924;4.516;2023-04-27T05:40:55;14.15;;;7.43;;
24407;SDS011;12542;50.924;4.516;2023-04-27T05:43:22;11.75;;;7.60;;
24407;SDS011;12542;50.924;4.516;2023-04-27T05:45:48;11.57;;;6.45;;
24407;SDS011;12542;50.924;4.516;2023-04-27T05:48:13;10.48;;;7.13;;
24407;SDS011;12542;50.924;4.516;2023-04-27T05:50:39;11.13;;;7.25;;
24407;SDS011;12542;50.924;4.516;2023-04-27T05:53:05;10.05;;;7.20;;
24407;SDS011;12542;50.924;4.516;2023-04-27T05:55:31;12.30;;;7.82;;
24407;SDS011;12542;50.924;4.516;2023-04-27T05:57:57;13.45;;;7.10;;
24407;SDS011;12542;50.924;4.516;2023-04-27T06:00:23;12.98;;;7.32;;
24407;SDS011;12542;50.924;4.516;2023-04-27T06:02:49;12.48;;;7.40;;
24407;SDS011;12542;50.924;4.516;2023-04-27T06:05:15;15.95;;;7.90;;
24407;SDS011;12542;50.924;4.516;2023-04-27T06:07:41;13.18;;;8.00;;
24407;SDS011;12542;50.924;4.516;2023-04-27T06:10:08;19.67;;;8.20;;
24407;SDS011;12542;50.924;4.516;2023-04-27T06:12:35;16.83;;;8.20;;
24407;SDS011;12542;50.924;4.516;2023-04-27T06:15:01;16.48;;;8.43;;
24407;SDS011;12542;50.924;4.516;2023-04-27T06:17:35;13.63;;;7.68;;
24407;SDS011;12542;50.924;4.516;2023-04-27T06:20:04;14.77;;;7.35;;
24407;SDS011;12542;50.924;4.516;2023-04-27T06:22:34;13.95;;;7.40;;
24407;SDS011;12542;50.924;4.516;2023-04-27T06:25:03;13.00;;;8.13;;
24407;SDS011;12542;50.924;4.516;2023-04-27T06:27:30;15.93;;;8.00;;
24407;SDS011;12542;50.924;4.516;2023-04-27T06:29:57;13.60;;;8.07;;
24407;SDS011;12542;50.924;4.516;2023-04-27T06:32:23;15.05;;;8.73;;
24407;SDS011;12542;50.924;4.516;2023-04-27T06:34:48;13.95;;;7.55;;
24407;SDS011;12542;50.924;4.516;2023-04-27T06:37:14;17.95;;;8.75;;
24407;SDS011;12542;50.924;4.516;2023-04-27T06:39:42;14.82;;;8.05;;
24407;SDS011;12542;50.924;4.516;2023-04-27T06:42:08;14.90;;;7.55;;
24407;SDS011;12542;50.924;4.516;2023-04-27T06:44:34;14.02;;;9.00;;
24407;SDS011;12542;50.924;4.516;2023-04-27T06:47:00;15.35;;;8.43;;
24407;SDS011;12542;50.924;4.516;2023-04-27T06:49:27;14.50;;;8.15;;
24407;SDS011;12542;50.924;4.516;2023-04-27T06:51:52;13.95;;;8.15;;
24407;SDS011;12542;50.924;4.516;2023-04-27T06:54:18;17.98;;;8.38;;
24407;SDS011;12542;50.924;4.516;2023-04-27T06:56:44;16.77;;;8.23;;
24407;SDS011;12542;50.924;4.516;2023-04-27T06:59:09;15.48;;;8.18;;
24407;SDS011;12542;50.924;4.516;2023-04-27T07:01:35;22.02;;;8.27;;
24407;SDS011;12542;50.924;4.516;2023-04-27T07:04:02;18.42;;;8.45;;
24407;SDS011;12542;50.924;4.516;2023-04-27T07:06:30;13.15;;;8.10;;
24407;SDS011;12542;50.924;4.516;2023-04-27T07:08:57;15.32;;;7.55;;
24407;SDS011;12542;50.924;4.516;2023-04-27T07:11:23;14.65;;;8.38;;
24407;SDS011;12542;50.924;4.516;2023-04-27T07:13:49;16.30;;;8.07;;
24407;SDS011;12542;50.924;4.516;2023-04-27T07:16:15;19.90;;;8.13;;
24407;SDS011;12542;50.924;4.516;2023-04-27T07:18:41;15.68;;;7.75;;
24407;SDS011;12542;50.924;4.516;2023-04-27T07:21:07;15.77;;;7.88;;
24407;SDS011;12542;50.924;4.516;2023-04-27T07:23:33;17.48;;;8.25;;
24407;SDS011;12542;50.924;4.516;2023-04-27T07:25:59;18.05;;;7.97;;
24407;SDS011;12542;50.924;4.516;2023-04-27T07:28:26;15.70;;;8.95;;
24407;SDS011;12542;50.924;4.516;2023-04-27T07:30:53;17.17;;;8.73;;
24407;SDS011;12542;50.924;4.516;2023-04-27T07:33:19;18.25;;;9.43;;
24407;SDS011;12542;50.924;4.516;2023-04-27T07:35:46;17.60;;;10.10;;
24407;SDS011;12542;50.924;4.516;2023-04-27T07:38:14;20.52;;;9.02;;
24407;SDS011;12542;50.924;4.516;2023-04-27T07:40:42;16.92;;;8.80;;
24407;SDS011;12542;50.924;4.516;2023-04-27T07:43:09;20.50;;;10.07;;
24407;SDS011;12542;50.924;4.516;2023-04-27T07:45:37;20.10;;;9.50;;
24407;SDS011;12542;50.924;4.516;2023-04-27T07:48:05;21.30;;;10.27;;
24407;SDS011;12542;50.924;4.516;2023-04-27T07:50:31;17.95;;;9.95;;
24407;SDS011;12542;50.924;4.516;2023-04-27T07:52:57;18.10;;;10.07;;
24407;SDS011;12542;50.924;4.516;2023-04-27T07:55:24;21.48;;;10.35;;
24407;SDS011;12542;50.924;4.516;2023-04-27T07:57:53;19.88;;;9.95;;
24407;SDS011;12542;50.924;4.516;2023-04-27T08:00:20;19.10;;;10.10;;
24407;SDS011;12542;50.924;4.516;2023-04-27T08:02:47;17.17;;;10.35;;
24407;SDS011;12542;50.924;4.516;2023-04-27T08:05:13;21.85;;;10.73;;
24407;SDS011;12542;50.924;4.516;2023-04-27T08:07:39;19.42;;;10.10;;
24407;SDS011;12542;50.924;4.516;2023-04-27T08:10:06;19.60;;;10.45;;
24407;SDS011;12542;50.924;4.516;2023-04-27T08:12:32;23.42;;;11.68;;
24407;SDS011;12542;50.924;4.516;2023-04-27T08:14:59;23.27;;;10.90;;
24407;SDS011;12542;50.924;4.516;2023-04-27T08:17:25;19.63;;;10.00;;
24407;SDS011;12542;50.924;4.516;2023-04-27T08:19:51;21.45;;;11.25;;
24407;SDS011;12542;50.924;4.516;2023-04-27T08:22:19;21.45;;;10.48;;
24407;SDS011;12542;50.924;4.516;2023-04-27T08:24:45;18.33;;;10.38;;
24407;SDS011;12542;50.924;4.516;2023-04-27T08:27:11;16.63;;;10.70;;
24407;SDS011;12542;50.924;4.516;2023-04-27T08:29:37;21.15;;;9.85;;
24407;SDS011;12542;50.924;4.516;2023-04-27T08:32:03;19.42;;;10.90;;
24407;SDS011;12542;50.924;4.516;2023-04-27T08:34:29;16.77;;;10.13;;
24407;SDS011;12542;50.924;4.516;2023-04-27T08:36:56;23.48;;;9.95;;
24407;SDS011;12542;50.924;4.516;2023-04-27T08:39:22;23.90;;;10.27;;
24407;SDS011;12542;50.924;4.516;2023-04-27T08:41:48;18.60;;;10.27;;
24407;SDS011;12542;50.924;4.516;2023-04-27T08:44:14;22.30;;;11.07;;
24407;SDS011;12542;50.924;4.516;2023-04-27T08:46:40;20.55;;;11.18;;
24407;SDS011;12542;50.924;4.516;2023-04-27T08:49:06;17.95;;;9.68;;
24407;SDS011;12542;50.924;4.516;2023-04-27T08:51:32;16.45;;;9.40;;
24407;SDS011;12542;50.924;4.516;2023-04-27T08:53:58;16.65;;;8.38;;
24407;SDS011;12542;50.924;4.516;2023-04-27T08:56:26;16.42;;;9.30;;
24407;SDS011;12542;50.924;4.516;2023-04-27T08:58:53;16.75;;;8.55;;
24407;SDS011;12542;50.924;4.516;2023-04-27T09:01:21;16.13;;;8.70;;
24407;SDS011;12542;50.924;4.516;2023-04-27T09:03:47;17.92;;;8.77;;
24407;SDS011;12542;50.924;4.516;2023-04-27T09:06:14;20.92;;;9.10;;
24407;SDS011;12542;50.924;4.516;2023-04-27T09:11:10;13.90;;;7.93;;
24407;SDS011;12542;50.924;4.516;2023-04-27T09:13:38;16.60;;;7.88;;
24407;SDS011;12542;50.924;4.516;2023-04-27T09:16:05;14.90;;;8.15;;
24407;SDS011;12542;50.924;4.516;2023-04-27T09:18:34;15.70;;;8.40;;
24407;SDS011;12542;50.924;4.516;2023-04-27T09:21:02;18.42;;;8.63;;
24407;SDS011;12542;50.924;4.516;2023-04-27T09:23:34;15.02;;;8.18;;
24407;SDS011;12542;50.924;4.516;2023-04-27T09:26:02;17.63;;;9.15;;
24407;SDS011;12542;50.924;4.516;2023-04-27T09:28:38;15.40;;;8.15;;
24407;SDS011;12542;50.924;4.516;2023-04-27T09:31:05;18.52;;;9.20;;
24407;SDS011;12542;50.924;4.516;2023-04-27T09:33:35;16.40;;;8.88;;
24407;SDS011;12542;50.924;4.516;2023-04-27T09:36:02;19.17;;;9.43;;
24407;SDS011;12542;50.924;4.516;2023-04-27T09:38:29;15.50;;;7.85;;
24407;SDS011;12542;50.924;4.516;2023-04-27T09:40:55;15.63;;;7.47;;
24407;SDS011;12542;50.924;4.516;2023-04-27T09:43:21;10.43;;;7.30;;
24407;SDS011;12542;50.924;4.516;2023-04-27T09:45:50;19.85;;;7.68;;
24407;SDS011;12542;50.924;4.516;2023-04-27T09:48:16;15.27;;;8.40;;
24407;SDS011;12542;50.924;4.516;2023-04-27T09:50:45;14.50;;;7.47;;
24407;SDS011;12542;50.924;4.516;2023-04-27T09:53:13;16.23;;;7.95;;
24407;SDS011;12542;50.924;4.516;2023-04-27T09:55:55;13.18;;;7.90;;
24407;SDS011;12542;50.924;4.516;2023-04-27T10:01:58;12.65;;;6.97;;
24407;SDS011;12542;50.924;4.516;2023-04-27T10:07:41;12.85;;;8.48;;
24407;SDS011;12542;50.924;4.516;2023-04-27T10:10:14;16.58;;;8.50;;
24407;SDS011;12542;50.924;4.516;2023-04-27T10:12:54;14.02;;;8.38;;
24407;SDS011;12542;50.924;4.516;2023-04-27T10:15:25;14.18;;;7.82;;
24407;SDS011;12542;50.924;4.516;2023-04-27T10:17:52;14.82;;;8.07;;
24407;SDS011;12542;50.924;4.516;2023-04-27T10:20:32;13.73;;;7.78;;
24407;SDS011;12542;50.924;4.516;2023-04-27T10:23:00;12.73;;;7.20;;
24407;SDS011;12542;50.924;4.516;2023-04-27T10:25:29;13.20;;;7.13;;
24407;SDS011;12542;50.924;4.516;2023-04-27T10:28:05;13.73;;;5.97;;
24407;SDS011;12542;50.924;4.516;2023-04-27T10:30:35;10.18;;;6.95;;
24407;SDS011;12542;50.924;4.516;2023-04-27T10:33:11;12.80;;;7.00;;
24407;SDS011;12542;50.924;4.516;2023-04-27T10:35:42;14.00;;;7.35;;
24407;SDS011;12542;50.924;4.516;2023-04-27T10:40:57;15.85;;;8.30;;
24407;SDS011;12542;50.924;4.516;2023-04-27T10:43:26;11.43;;;6.53;;
24407;SDS011;12542;50.924;4.516;2023-04-27T10:46:07;13.20;;;7.18;;
24407;SDS011;12542;50.924;4.516;2023-04-27T10:48:41;15.48;;;7.07;;
24407;SDS011;12542;50.924;4.516;2023-04-27T10:51:07;13.32;;;7.68;;
24407;SDS011;12542;50.924;4.516;2023-04-27T10:53:34;15.15;;;8.13;;
24407;SDS011;12542;50.924;4.516;2023-04-27T10:56:02;11.77;;;7.25;;
24407;SDS011;12542;50.924;4.516;2023-04-27T10:58:31;17.25;;;8.10;;
24407;SDS011;12542;50.924;4.516;2023-04-27T11:00:57;13.38;;;7.25;;
24407;SDS011;12542;50.924;4.516;2023-04-27T11:03:23;14.73;;;7.78;;
24407;SDS011;12542;50.924;4.516;2023-04-27T11:05:58;15.32;;;8.50;;
24407;SDS011;12542;50.924;4.516;2023-04-27T11:08:29;13.95;;;7.43;;
24407;SDS011;12542;50.924;4.516;2023-04-27T11:10:56;13.38;;;7.50;;
24407;SDS011;12542;50.924;4.516;2023-04-27T11:13:25;13.98;;;7.07;;
24407;SDS011;12542;50.924;4.516;2023-04-27T11:15:55;11.82;;;6.75;;
24407;SDS011;12542;50.924;4.516;2023-04-27T11:18:25;11.18;;;6.55;;
24407;SDS011;12542;50.924;4.516;2023-04-27T11:21:05;13.52;;;7.65;;
24407;SDS011;12542;50.924;4.516;2023-04-27T11:23:35;12.57;;;8.00;;
24407;SDS011;12542;50.924;4.516;2023-04-27T11:28:34;12.63;;;7.30;;
24407;SDS011;12542;50.924;4.516;2023-04-27T11:31:00;11.43;;;6.65;;
24407;SDS011;12542;50.924;4.516;2023-04-27T11:33:28;9.25;;;6.25;;
24407;SDS011;12542;50.924;4.516;2023-04-27T11:35:54;11.95;;;6.45;;
24407;SDS011;12542;50.924;4.516;2023-04-27T11:38:20;13.13;;;6.15;;
24407;SDS011;12542;50.924;4.516;2023-04-27T11:40:46;11.65;;;6.15;;
24407;SDS011;12542;50.924;4.516;2023-04-27T11:43:28;16.13;;;7.68;;
24407;SDS011;12542;50.924;4.516;2023-04-27T11:45:54;8.23;;;5.68;;
24407;SDS011;12542;50.924;4.516;2023-04-27T11:48:24;11.80;;;6.07;;
24407;SDS011;12542;50.924;4.516;2023-04-27T11:50:51;14.07;;;5.90;;
24407;SDS011;12542;50.924;4.516;2023-04-27T11:53:27;10.50;;;6.35;;
24407;SDS011;12542;50.924;4.516;2023-04-27T11:56:01;14.93;;;6.65;;
24407;SDS011;12542;50.924;4.516;2023-04-27T11:58:35;15.40;;;6.85;;
24407;SDS011;12542;50.924;4.516;2023-04-27T12:01:03;9.57;;;6.30;;
24407;SDS011;12542;50.924;4.516;2023-04-27T12:03:29;13.88;;;6.07;;
24407;SDS011;12542;50.924;4.516;2023-04-27T12:05:55;11.27;;;5.32;;
24407;SDS011;12542;50.924;4.516;2023-04-27T12:08:22;12.05;;;5.95;;
24407;SDS011;12542;50.924;4.516;2023-04-27T12:10:48;10.07;;;6.53;;
24407;SDS011;12542;50.924;4.516;2023-04-27T12:13:14;12.43;;;6.78;;
24407;SDS011;12542;50.924;4.516;2023-04-27T12:15:40;10.23;;;6.53;;
24407;SDS011;12542;50.924;4.516;2023-04-27T12:18:08;8.85;;;6.50;;
24407;SDS011;12542;50.924;4.516;2023-04-27T12:20:34;11.70;;;6.72;;
24407;SDS011;12542;50.924;4.516;2023-04-27T12:23:00;10.57;;;5.95;;
24407;SDS011;12542;50.924;4.516;2023-04-27T12:25:27;10.20;;;5.47;;
24407;SDS011;12542;50.924;4.516;2023-04-27T12:27:52;11.10;;;5.75;;
24407;SDS011;12542;50.924;4.516;2023-04-27T12:30:19;14.65;;;6.28;;
24407;SDS011;12542;50.924;4.516;2023-04-27T12:32:47;13.45;;;7.03;;
24407;SDS011;12542;50.924;4.516;2023-04-27T12:35:12;12.18;;;6.50;;
24407;SDS011;12542;50.924;4.516;2023-04-27T12:37:38;12.35;;;7.10;;
24407;SDS011;12542;50.924;4.516;2023-04-27T12:40:06;13.88;;;7.30;;
24407;SDS011;12542;50.924;4.516;2023-04-27T12:42:33;9.45;;;6.70;;
24407;SDS011;12542;50.924;4.516;2023-04-27T12:45:01;11.98;;;6.75;;
24407;SDS011;12542;50.924;4.516;2023-04-27T12:47:28;14.50;;;7.45;;
24407;SDS011;12542;50.924;4.516;2023-04-27T12:49:54;15.18;;;7.22;;
24407;SDS011;12542;50.924;4.516;2023-04-27T12:52:20;15.55;;;6.82;;
24407;SDS011;12542;50.924;4.516;2023-04-27T12:54:46;14.50;;;6.93;;
24407;SDS011;12542;50.924;4.516;2023-04-27T12:57:12;13.50;;;7.03;;
24407;SDS011;12542;50.924;4.516;2023-04-27T12:59:40;13.50;;;6.72;;
24407;SDS011;12542;50.924;4.516;2023-04-27T13:02:06;11.52;;;6.53;;
24407;SDS011;12542;50.924;4.516;2023-04-27T13:04:32;14.70;;;7.70;;
24407;SDS011;12542;50.924;4.516;2023-04-27T13:06:58;11.30;;;6.78;;
24407;SDS011;12542;50.924;4.516;2023-04-27T13:09:25;14.82;;;7.80;;
24407;SDS011;12542;50.924;4.516;2023-04-27T13:11:53;15.77;;;8.75;;
24407;SDS011;12542;50.924;4.516;2023-04-27T13:14:19;14.23;;;8.23;;
24407;SDS011;12542;50.924;4.516;2023-04-27T13:16:45;15.85;;;7.55;;
24407;SDS011;12542;50.924;4.516;2023-04-27T13:19:11;12.05;;;7.63;;
24407;SDS011;12542;50.924;4.516;2023-04-27T13:21:37;18.52;;;8.10;;
24407;SDS011;12542;50.924;4.516;2023-04-27T13:24:03;17.95;;;7.90;;
24407;SDS011;12542;50.924;4.516;2023-04-27T13:26:29;13.73;;;8.18;;
24407;SDS011;12542;50.924;4.516;2023-04-27T13:28:55;16.15;;;8.25;;
24407;SDS011;12542;50.924;4.516;2023-04-27T13:31:22;14.85;;;7.55;;
24407;SDS011;12542;50.924;4.516;2023-04-27T13:33:48;13.88;;;8.20;;
24407;SDS011;12542;50.924;4.516;2023-04-27T13:36:14;14.20;;;8.18;;
24407;SDS011;12542;50.924;4.516;2023-04-27T13:38:40;14.25;;;7.70;;
24407;SDS011;12542;50.924;4.516;2023-04-27T13:41:06;13.18;;;6.85;;
24407;SDS011;12542;50.924;4.516;2023-04-27T13:43:32;13.55;;;7.75;;
24407;SDS011;12542;50.924;4.516;2023-04-27T13:45:58;12.20;;;7.38;;
24407;SDS011;12542;50.924;4.516;2023-04-27T13:48:25;12.65;;;6.75;;
24407;SDS011;12542;50.924;4.516;2023-04-27T13:50:52;14.13;;;7.65;;
24407;SDS011;12542;50.924;4.516;2023-04-27T13:53:19;14.13;;;7.70;;
24407;SDS011;12542;50.924;4.516;2023-04-27T13:55:45;12.02;;;8.13;;
24407;SDS011;12542;50.924;4.516;2023-04-27T13:58:11;15.27;;;8.20;;
24407;SDS011;12542;50.924;4.516;2023-04-27T14:00:37;13.23;;;8.18;;
24407;SDS011;12542;50.924;4.516;2023-04-27T14:03:03;16.40;;;8.63;;
24407;SDS011;12542;50.924;4.516;2023-04-27T14:05:29;10.88;;;7.28;;
24407;SDS011;12542;50.924;4.516;2023-04-27T14:07:56;14.00;;;7.30;;
24407;SDS011;12542;50.924;4.516;2023-04-27T14:10:22;16.85;;;8.40;;
24407;SDS011;12542;50.924;4.516;2023-04-27T14:12:50;12.30;;;8.10;;
24407;SDS011;12542;50.924;4.516;2023-04-27T14:15:18;15.73;;;8.20;;
24407;SDS011;12542;50.924;4.516;2023-04-27T14:17:44;10.95;;;6.70;;
24407;SDS011;12542;50.924;4.516;2023-04-27T14:20:10;13.90;;;7.72;;
24407;SDS011;12542;50.924;4.516;2023-04-27T14:22:37;13.63;;;7.80;;
24407;SDS011;12542;50.924;4.516;2023-04-27T14:25:03;13.95;;;7.55;;
24407;SDS011;12542;50.924;4.516;2023-04-27T14:27:29;10.20;;;7.00;;
24407;SDS011;12542;50.924;4.516;2023-04-27T14:29:54;13.05;;;8.05;;
24407;SDS011;12542;50.924;4.516;2023-04-27T14:32:20;14.27;;;7.40;;
24407;SDS011;12542;50.924;4.516;2023-04-27T14:34:46;15.93;;;8.73;;
24407;SDS011;12542;50.924;4.516;2023-04-27T14:37:13;14.52;;;8.15;;
24407;SDS011;12542;50.924;4.516;2023-04-27T14:39:39;12.55;;;7.72;;
24407;SDS011;12542;50.924;4.516;2023-04-27T14:42:05;17.65;;;7.93;;
24407;SDS011;12542;50.924;4.516;2023-04-27T14:44:31;15.43;;;8.30;;
24407;SDS011;12542;50.924;4.516;2023-04-27T14:46:59;14.85;;;7.38;;